createdAt,value
2022-12-25T00:00:20.386Z,4.06
2022-12-25T00:03:22.896Z,3.76
2022-12-25T00:06:24.719Z,3.59
2022-12-25T00:09:26.374Z,3.93
2022-12-25T00:12:28.029Z,4.02
2022-12-25T00:15:29.742Z,4.00
2022-12-25T00:18:31.428Z,3.79
2022-12-25T00:21:33.417Z,3.10
2022-12-25T00:24:35.068Z,3.06
2022-12-25T00:27:37.962Z,3.28
2022-12-25T00:30:41.121Z,3.40
2022-12-25T00:33:44.625Z,3.57
2022-12-25T00:36:46.376Z,3.48
2022-12-25T00:39:49.840Z,3.16
2022-12-25T00:42:51.645Z,3.35
2022-12-25T00:45:58.851Z,3.48
2022-12-25T00:49:00.892Z,3.64
2022-12-25T00:52:02.934Z,3.75
2022-12-25T00:55:05.745Z,3.88
2022-12-25T00:58:07.375Z,3.90
2022-12-25T01:01:11.019Z,3.87
2022-12-25T01:04:13.155Z,3.79
2022-12-25T01:07:16.992Z,3.78
2022-12-25T01:10:24.252Z,3.85
2022-12-25T01:13:26.726Z,3.87
2022-12-25T01:16:29.227Z,3.82
2022-12-25T01:19:30.933Z,3.80
2022-12-25T01:22:32.657Z,4.10
2022-12-25T01:25:34.303Z,4.05
2022-12-25T01:28:36.634Z,4.21
2022-12-25T01:31:38.405Z,4.26
2022-12-25T01:34:40.056Z,4.36
2022-12-25T01:37:41.713Z,4.52
2022-12-25T01:40:43.357Z,4.35
2022-12-25T01:44:03.104Z,3.91
2022-12-25T01:47:06.565Z,3.60
2022-12-25T01:50:08.765Z,3.62
2022-12-25T01:53:11.204Z,3.71
2022-12-25T01:56:12.915Z,3.89
2022-12-25T01:59:17.569Z,3.83
2022-12-25T02:02:20.254Z,3.77
2022-12-25T02:05:27.335Z,3.85
2022-12-25T02:08:29.173Z,3.84
2022-12-25T02:11:49.449Z,4.08
2022-12-25T02:14:59.621Z,4.37
2022-12-25T02:18:12.079Z,4.42
2022-12-25T02:21:32.387Z,4.45
2022-12-25T02:24:37.021Z,4.34
2022-12-25T02:28:09.542Z,4.61
2022-12-25T02:31:17.267Z,4.73
2022-12-25T02:34:52.135Z,4.82
2022-12-25T02:38:16.300Z,4.76
2022-12-25T02:41:18.436Z,4.64
2022-12-25T02:44:43.347Z,4.71
2022-12-25T02:48:03.862Z,4.84
2022-12-25T02:51:28.183Z,4.87
2022-12-25T02:54:55.188Z,4.65
2022-12-25T02:58:21.065Z,4.56
2022-12-25T03:01:44.798Z,4.57
2022-12-25T03:05:06.196Z,4.71
2022-12-25T03:08:13.933Z,4.76
2022-12-25T03:11:33.646Z,4.81
2022-12-25T03:14:53.892Z,4.87
2022-12-25T03:17:59.345Z,4.85
2022-12-25T03:21:20.371Z,4.74
2022-12-25T03:24:41.375Z,4.41
2022-12-25T03:27:46.769Z,3.94
2022-12-25T03:31:13.154Z,3.83
2022-12-25T03:34:56.426Z,4.16
2022-12-25T03:38:19.499Z,3.80
2022-12-25T03:42:04.812Z,3.68
2022-12-25T03:45:38.347Z,4.10
2022-12-25T03:49:03.086Z,4.30
2022-12-25T03:52:26.933Z,4.42
2022-12-25T03:55:47.432Z,4.43
2022-12-25T03:59:15.456Z,4.31
2022-12-25T04:02:39.923Z,4.23
2022-12-25T04:06:00.337Z,4.35
2022-12-25T04:09:20.380Z,3.98
2022-12-25T04:12:40.685Z,3.84
2022-12-25T04:16:00.896Z,3.84
2022-12-25T04:19:21.079Z,3.75
2022-12-25T04:22:41.090Z,3.62
2022-12-25T04:26:01.228Z,3.68
2022-12-25T04:29:21.822Z,3.63
2022-12-25T04:32:42.158Z,3.52
2022-12-25T04:36:07.126Z,3.48
2022-12-25T04:39:10.196Z,3.46
2022-12-25T04:42:11.896Z,3.38
2022-12-25T04:45:13.560Z,3.57
2022-12-25T04:48:15.413Z,3.63
2022-12-25T04:51:19.559Z,3.66
2022-12-25T04:54:21.606Z,3.69
2022-12-25T04:57:23.348Z,3.54
2022-12-25T05:00:25.068Z,3.38
2022-12-25T05:03:27.130Z,3.17
2022-12-25T05:06:28.864Z,2.76
2022-12-25T05:09:30.567Z,2.59
2022-12-25T05:12:32.301Z,2.70
2022-12-25T05:15:34.049Z,2.85
2022-12-25T05:18:36.132Z,2.90
2022-12-25T05:21:37.849Z,2.93
2022-12-25T05:24:39.520Z,3.10
2022-12-25T05:27:41.272Z,3.03
2022-12-25T05:30:43.072Z,2.83
2022-12-25T05:33:44.765Z,2.97
2022-12-25T05:36:46.383Z,2.87
2022-12-25T05:39:48.048Z,2.95
2022-12-25T05:42:49.713Z,3.09
2022-12-25T05:45:51.533Z,3.07
2022-12-25T05:48:53.227Z,3.13
2022-12-25T05:51:54.955Z,3.02
2022-12-25T05:54:57.327Z,3.07
2022-12-25T05:57:59.055Z,3.02
2022-12-25T06:01:00.817Z,3.00
2022-12-25T06:04:05.794Z,2.83
2022-12-25T06:07:12.026Z,2.84
2022-12-25T06:10:13.980Z,3.01
2022-12-25T06:13:15.667Z,3.03
2022-12-25T06:16:17.932Z,3.17
2022-12-25T06:19:22.882Z,3.22
2022-12-25T06:22:32.168Z,3.26
2022-12-25T06:25:34.005Z,3.24
2022-12-25T06:28:36.230Z,3.19
2022-12-25T06:31:37.950Z,3.22
2022-12-25T06:34:39.718Z,3.29
2022-12-25T06:37:41.414Z,3.30
2022-12-25T06:40:43.077Z,3.37
2022-12-25T06:43:51.711Z,3.45
2022-12-25T06:46:54.530Z,3.52
2022-12-25T06:49:56.229Z,3.49
2022-12-25T06:52:57.882Z,3.52
2022-12-25T06:56:07.562Z,3.60
2022-12-25T06:59:11.180Z,3.93
2022-12-25T07:02:33.330Z,4.16
2022-12-25T07:05:35.192Z,3.96
2022-12-25T07:08:37.178Z,3.99
2022-12-25T07:11:38.975Z,4.19
2022-12-25T07:14:40.908Z,4.24
2022-12-25T07:17:43.637Z,4.64
2022-12-25T07:20:45.328Z,5.66
2022-12-25T07:23:49.604Z,5.73
2022-12-25T07:26:51.918Z,5.95
2022-12-25T07:29:53.577Z,5.32
2022-12-25T07:32:55.490Z,5.19
2022-12-25T07:35:57.180Z,5.08
2022-12-25T07:38:58.830Z,5.19
2022-12-25T07:42:00.542Z,5.60
2022-12-25T07:45:02.884Z,6.07
2022-12-25T07:48:06.266Z,6.08
2022-12-25T07:51:14.925Z,5.81
2022-12-25T07:54:16.625Z,5.52
2022-12-25T07:57:18.303Z,5.59
2022-12-25T08:00:20.305Z,5.64
2022-12-25T08:03:22.325Z,5.71
2022-12-25T08:06:30.085Z,6.06
2022-12-25T08:09:31.813Z,6.49
2022-12-25T08:12:33.481Z,5.92
2022-12-25T08:15:35.148Z,6.01
2022-12-25T08:18:38.186Z,6.23
2022-12-25T08:21:39.899Z,6.52
2022-12-25T08:24:41.611Z,7.42
2022-12-25T08:27:43.277Z,8.83
2022-12-25T08:30:45.088Z,10.22
2022-12-25T08:33:48.726Z,11.52
2022-12-25T08:36:50.376Z,11.76
2022-12-25T08:39:52.006Z,11.13
2022-12-25T08:42:57.182Z,11.64
2022-12-25T08:45:59.000Z,12.79
2022-12-25T08:49:00.790Z,13.43
2022-12-25T08:52:02.502Z,14.91
2022-12-25T08:55:04.429Z,16.03
2022-12-25T08:58:06.205Z,16.98
2022-12-25T09:01:08.785Z,15.38
2022-12-25T09:04:10.502Z,14.20
2022-12-25T09:07:12.264Z,13.72
2022-12-25T09:10:13.921Z,12.76
2022-12-25T09:13:15.583Z,11.14
2022-12-25T09:16:20.556Z,10.19
2022-12-25T09:19:22.417Z,9.94
2022-12-25T09:22:24.155Z,10.13
2022-12-25T09:25:25.828Z,10.32
2022-12-25T09:28:27.635Z,10.09
2022-12-25T09:31:29.350Z,9.89
2022-12-25T09:34:31.210Z,10.14
2022-12-25T09:37:33.034Z,10.30
2022-12-25T09:40:35.264Z,10.38
2022-12-25T09:43:46.741Z,10.31
2022-12-25T09:46:56.937Z,10.02
2022-12-25T09:50:11.405Z,10.11
2022-12-25T09:53:21.093Z,10.06
2022-12-25T09:56:26.143Z,10.12
2022-12-25T09:59:27.932Z,10.47
2022-12-25T10:02:59.861Z,10.24
2022-12-25T10:06:18.413Z,10.14
2022-12-25T10:09:54.763Z,10.19
2022-12-25T10:12:59.167Z,10.15
2022-12-25T10:16:08.729Z,9.90
2022-12-25T10:19:20.727Z,10.16
2022-12-25T10:22:44.879Z,10.52
2022-12-25T10:25:47.488Z,10.42
2022-12-25T10:28:58.483Z,9.75
2022-12-25T10:32:00.261Z,9.72
2022-12-25T10:35:01.934Z,9.62
2022-12-25T10:38:12.509Z,9.48
2022-12-25T10:41:22.138Z,9.70
2022-12-25T10:44:27.009Z,9.83
2022-12-25T10:47:32.948Z,9.57
2022-12-25T10:50:34.863Z,9.46
2022-12-25T10:53:43.671Z,9.45
2022-12-25T10:57:03.376Z,9.53
2022-12-25T11:00:05.946Z,9.62
2022-12-25T11:03:22.638Z,9.74
2022-12-25T11:06:28.206Z,9.94
2022-12-25T11:09:29.918Z,10.14
2022-12-25T11:12:36.426Z,10.48
2022-12-25T11:15:49.399Z,10.39
2022-12-25T11:18:54.267Z,10.36
2022-12-25T11:22:01.012Z,10.48
2022-12-25T11:25:13.703Z,10.48
2022-12-25T11:28:15.361Z,10.54
2022-12-25T11:31:20.069Z,10.58
2022-12-25T11:34:27.568Z,10.90
2022-12-25T11:37:44.941Z,10.69
2022-12-25T11:40:50.972Z,11.07
2022-12-25T11:43:59.390Z,11.63
2022-12-25T11:47:14.040Z,11.06
2022-12-25T11:50:20.409Z,11.30
2022-12-25T11:53:35.016Z,11.44
2022-12-25T11:56:37.842Z,11.23
2022-12-25T11:59:58.657Z,11.10
2022-12-25T12:03:16.394Z,10.81
2022-12-25T12:06:49.847Z,10.50
2022-12-25T12:10:03.414Z,10.39
2022-12-25T12:13:24.353Z,10.60
2022-12-25T12:16:26.262Z,10.81
2022-12-25T12:19:30.955Z,10.85
2022-12-25T12:22:32.605Z,10.47
2022-12-25T12:25:40.421Z,10.27
2022-12-25T12:28:47.176Z,10.27
2022-12-25T12:31:51.027Z,10.27
2022-12-25T12:34:52.954Z,10.48
2022-12-25T12:38:02.030Z,10.41
2022-12-25T12:41:07.408Z,10.58
2022-12-25T12:44:11.720Z,10.80
2022-12-25T12:47:40.842Z,10.78
2022-12-25T12:50:43.246Z,10.78
2022-12-25T12:53:44.979Z,10.62
2022-12-25T12:57:21.788Z,10.56
2022-12-25T13:00:23.587Z,10.42
2022-12-25T13:03:27.906Z,10.39
2022-12-25T13:06:56.030Z,10.37
2022-12-25T13:09:57.573Z,10.48
2022-12-25T13:13:06.964Z,10.39
2022-12-25T13:16:45.778Z,10.71
2022-12-25T13:19:49.722Z,10.58
2022-12-25T13:22:53.048Z,10.54
2022-12-25T13:25:57.658Z,10.35
2022-12-25T13:28:59.501Z,10.28
2022-12-25T13:32:03.439Z,10.35
2022-12-25T13:35:11.770Z,10.30
2022-12-25T13:38:18.208Z,10.20
2022-12-25T13:42:01.589Z,10.12
2022-12-25T13:45:15.844Z,10.05
2022-12-25T13:48:24.144Z,10.04
2022-12-25T13:51:26.342Z,10.14
2022-12-25T13:54:27.957Z,10.28
2022-12-25T13:57:38.616Z,10.30
2022-12-25T14:00:50.060Z,10.05
2022-12-25T14:03:51.942Z,10.05
2022-12-25T14:06:53.650Z,10.08
2022-12-25T14:10:03.368Z,9.98
2022-12-25T14:13:10.617Z,10.14
2022-12-25T14:16:17.015Z,10.26
2022-12-25T14:19:33.499Z,10.11
2022-12-25T14:22:36.064Z,10.04
2022-12-25T14:25:43.766Z,9.43
2022-12-25T14:29:02.496Z,9.34
2022-12-25T14:32:07.343Z,9.51
2022-12-25T14:35:11.993Z,9.49
2022-12-25T14:38:35.048Z,9.26
2022-12-25T14:41:41.213Z,8.97
2022-12-25T14:44:42.995Z,8.76
2022-12-25T14:47:56.187Z,8.52
2022-12-25T14:51:00.879Z,8.70
2022-12-25T14:54:05.552Z,8.62
2022-12-25T14:57:07.254Z,8.59
2022-12-25T15:00:09.504Z,8.52
2022-12-25T15:03:23.940Z,8.00
2022-12-25T15:06:26.029Z,7.86
2022-12-25T15:09:30.055Z,7.83
2022-12-25T15:12:31.861Z,7.64
2022-12-25T15:15:34.695Z,7.78
2022-12-25T15:18:44.768Z,7.70
2022-12-25T15:21:46.633Z,7.48
2022-12-25T15:24:48.305Z,7.44
2022-12-25T15:27:49.989Z,7.50
2022-12-25T15:30:52.087Z,7.47
2022-12-25T15:33:55.744Z,7.39
2022-12-25T15:36:57.471Z,7.37
2022-12-25T15:39:59.563Z,7.41
2022-12-25T15:43:06.387Z,7.56
2022-12-25T15:46:12.859Z,7.59
2022-12-25T15:49:15.724Z,7.73
2022-12-25T15:52:18.301Z,7.87
2022-12-25T15:55:20.019Z,7.87
2022-12-25T15:58:21.703Z,7.36
2022-12-25T16:01:23.488Z,7.02
2022-12-25T16:04:26.837Z,6.84
2022-12-25T16:07:29.380Z,6.59
2022-12-25T16:10:36.648Z,6.45
2022-12-25T16:13:40.510Z,6.21
2022-12-25T16:16:42.279Z,6.53
2022-12-25T16:19:44.986Z,6.26
2022-12-25T16:22:46.714Z,6.49
2022-12-25T16:25:48.560Z,6.49
2022-12-25T16:28:50.199Z,6.43
2022-12-25T16:31:51.852Z,6.56
2022-12-25T16:34:53.509Z,6.28
2022-12-25T16:37:55.214Z,6.17
2022-12-25T16:40:59.929Z,5.78
2022-12-25T16:44:09.364Z,5.67
2022-12-25T16:47:11.315Z,6.13
2022-12-25T16:50:13.169Z,6.12
2022-12-25T16:53:14.865Z,6.27
2022-12-25T16:56:20.680Z,6.51
2022-12-25T16:59:22.473Z,6.54
2022-12-25T17:02:24.621Z,6.12
2022-12-25T17:05:26.528Z,6.39
2022-12-25T17:08:28.738Z,6.66
2022-12-25T17:11:31.145Z,6.67
2022-12-25T17:14:33.786Z,6.68
2022-12-25T17:17:35.573Z,6.40
2022-12-25T17:20:38.234Z,6.35
2022-12-25T17:23:39.961Z,6.13
2022-12-25T17:26:43.858Z,6.23
2022-12-25T17:29:47.709Z,6.40
2022-12-25T17:32:49.820Z,6.07
2022-12-25T17:35:51.435Z,6.20
2022-12-25T17:38:53.108Z,5.95
2022-12-25T17:41:54.829Z,6.23
2022-12-25T17:44:56.484Z,6.18
2022-12-25T17:47:58.140Z,6.15
2022-12-25T17:51:08.383Z,5.91
2022-12-25T17:54:10.749Z,6.01
2022-12-25T17:57:12.407Z,6.27
2022-12-25T18:00:14.420Z,6.17
2022-12-25T18:03:16.674Z,6.39
2022-12-25T18:06:21.874Z,6.49
2022-12-25T18:09:23.560Z,6.53
2022-12-25T18:12:25.176Z,6.46
2022-12-25T18:15:26.878Z,6.26
2022-12-25T18:18:29.051Z,5.98
2022-12-25T18:21:31.321Z,5.95
2022-12-25T18:24:33.075Z,5.73
2022-12-25T18:27:34.805Z,5.60
2022-12-25T18:30:44.447Z,5.52
2022-12-25T18:33:46.799Z,5.39
2022-12-25T18:36:48.446Z,5.71
2022-12-25T18:39:50.189Z,5.67
2022-12-25T18:42:59.371Z,5.72
2022-12-25T18:46:05.300Z,5.86
2022-12-25T18:49:07.140Z,6.06
2022-12-25T18:52:49.405Z,6.32
2022-12-25T18:55:31.463Z,6.43
2022-12-25T18:58:33.871Z,6.51
2022-12-25T19:01:35.778Z,6.65
2022-12-25T19:04:37.770Z,6.51
2022-12-25T19:07:39.417Z,6.53
2022-12-25T19:10:41.801Z,6.71
2022-12-25T19:13:44.385Z,6.52
2022-12-25T19:16:46.484Z,6.01
2022-12-25T19:19:48.255Z,5.95
2022-12-25T19:22:50.089Z,5.66
2022-12-25T19:25:51.794Z,5.75
2022-12-25T19:28:53.510Z,5.64
2022-12-25T19:31:55.771Z,5.77
2022-12-25T19:34:57.435Z,5.76
2022-12-25T19:37:59.339Z,5.70
2022-12-25T19:41:06.911Z,5.59
2022-12-25T19:44:08.753Z,5.54
2022-12-25T19:47:11.319Z,5.59
2022-12-25T19:50:13.145Z,5.63
2022-12-25T19:53:17.049Z,5.77
2022-12-25T19:56:19.818Z,5.49
2022-12-25T19:59:22.402Z,5.40
2022-12-25T20:02:24.230Z,5.42
2022-12-25T20:05:26.027Z,5.56
2022-12-25T20:08:28.031Z,5.50
2022-12-25T20:11:31.804Z,5.37
2022-12-25T20:14:33.465Z,5.38
2022-12-25T20:17:35.236Z,5.25
2022-12-25T20:20:37.205Z,5.14
2022-12-25T20:23:38.973Z,5.30
2022-12-25T20:26:40.785Z,5.34
2022-12-25T20:29:42.499Z,5.22
2022-12-25T20:32:50.207Z,5.29
2022-12-25T20:35:52.549Z,5.21
2022-12-25T20:38:54.340Z,5.39
2022-12-25T20:41:56.185Z,5.31
2022-12-25T20:44:57.878Z,5.12
2022-12-25T20:48:00.512Z,5.07
2022-12-25T20:51:09.569Z,5.53
2022-12-25T20:54:14.017Z,5.81
2022-12-25T20:57:15.692Z,5.48
2022-12-25T21:00:17.490Z,5.33
2022-12-25T21:03:19.368Z,5.26
2022-12-25T21:06:21.844Z,5.42
2022-12-25T21:09:23.503Z,5.47
2022-12-25T21:12:25.659Z,5.12
2022-12-25T21:15:27.311Z,5.21
2022-12-25T21:18:28.990Z,5.14
2022-12-25T21:21:30.974Z,5.01
2022-12-25T21:24:32.635Z,5.00
2022-12-25T21:27:34.346Z,4.97
2022-12-25T21:30:36.365Z,5.02
2022-12-25T21:33:53.972Z,5.05
2022-12-25T21:36:55.708Z,5.09
2022-12-25T21:39:57.374Z,4.98
2022-12-25T21:43:00.519Z,5.06
2022-12-25T21:46:04.282Z,5.03
2022-12-25T21:49:06.084Z,4.98
2022-12-25T21:52:07.759Z,4.90
2022-12-25T21:55:09.430Z,4.96
2022-12-25T21:58:11.128Z,4.97
2022-12-25T22:01:16.728Z,4.95
2022-12-25T22:04:20.772Z,4.94
2022-12-25T22:07:22.473Z,4.98
2022-12-25T22:10:24.093Z,4.92
2022-12-25T22:13:44.127Z,4.91
2022-12-25T22:17:04.363Z,4.95
2022-12-25T22:20:08.839Z,4.91
2022-12-25T22:23:10.476Z,5.00
2022-12-25T22:26:17.277Z,5.05
2022-12-25T22:29:22.242Z,5.23
2022-12-25T22:32:23.928Z,5.44
2022-12-25T22:35:25.704Z,5.60
2022-12-25T22:38:27.336Z,5.56
2022-12-25T22:41:33.496Z,5.73
2022-12-25T22:44:35.894Z,5.94
2022-12-25T22:47:37.860Z,5.72
2022-12-25T22:50:39.546Z,5.87
2022-12-25T22:53:41.586Z,5.66
2022-12-25T22:56:45.254Z,5.61
2022-12-25T22:59:47.001Z,5.59
2022-12-25T23:02:48.813Z,5.55
2022-12-25T23:05:55.329Z,5.47
2022-12-25T23:08:57.459Z,5.38
2022-12-25T23:11:59.722Z,5.31
2022-12-25T23:15:01.532Z,5.27
2022-12-25T23:18:21.989Z,5.27
2022-12-25T23:21:45.320Z,5.26
2022-12-25T23:25:05.635Z,5.33
2022-12-25T23:28:07.330Z,5.29
2022-12-25T23:31:09.496Z,5.27
2022-12-25T23:34:11.489Z,5.28
2022-12-25T23:37:13.208Z,5.30
2022-12-25T23:40:15.147Z,5.30
2022-12-25T23:43:16.864Z,5.31
2022-12-25T23:46:18.729Z,5.25
2022-12-25T23:49:22.216Z,5.34
2022-12-25T23:52:23.992Z,5.12
2022-12-25T23:55:25.690Z,5.20
2022-12-25T23:58:28.884Z,4.98
